Time;durP1;ratioP1;P1;durP2;ratioP2;P2;SDS_P1;SDS_P2;PMS_P1;PMS_P2;Temp;Humidity;BMP_temperature;BMP_pressure;BME280_temperature;BME280_humidity;BME280_pressure;Samples;Min_cycle;Max_cycle;Signal;HPM_P1;HPM_P2
2024/01/22 00:02:58;;;;;;;0.30;0.30;;;6.30;72.50;;;;;;10436932;28;20232;-80
2024/01/22 00:08:03;;;;;;;0.30;0.30;;;6.30;73.00;;;;;;10460208;28;20190;-80
2024/01/22 00:13:05;;;;;;;0.30;0.30;;;6.30;72.80;;;;;;10455927;28;20223;-80
2024/01/22 00:18:08;;;;;;;0.40;0.40;;;6.20;72.80;;;;;;10465642;28;20290;-80
2024/01/22 00:23:11;;;;;;;0.40;0.40;;;6.10;73.40;;;;;;10418861;28;1079922;-81
2024/01/22 00:28:14;;;;;;;0.40;0.40;;;6.00;74.10;;;;;;10472824;28;20576;-80
2024/01/22 00:33:16;;;;;;;0.30;0.30;;;5.90;76.00;;;;;;10453776;28;20221;-82
2024/01/22 00:38:20;;;;;;;0.40;0.40;;;5.80;76.70;;;;;;10445957;28;20248;-79
2024/01/22 00:43:22;;;;;;;0.40;0.40;;;5.70;77.10;;;;;;10450268;28;20259;-79
2024/01/22 00:48:24;;;;;;;0.30;0.30;;;5.60;79.30;;;;;;10449622;28;20201;-81
2024/01/22 00:53:28;;;;;;;0.30;0.30;;;5.40;80.80;;;;;;10448538;28;20520;-79
2024/01/22 00:58:30;;;;;;;0.30;0.30;;;5.20;80.80;;;;;;10448187;28;20217;-79
2024/01/22 01:03:33;;;;;;;0.30;0.30;;;5.10;81.70;;;;;;10457090;28;20229;-79
2024/01/22 01:08:36;;;;;;;0.30;0.30;;;5.00;82.80;;;;;;10448753;28;20194;-81
2024/01/22 01:13:39;;;;;;;0.30;0.30;;;4.80;84.10;;;;;;10448943;28;20244;-79
2024/01/22 01:18:41;;;;;;;0.30;0.30;;;4.60;85.00;;;;;;10434451;28;20405;-78
2024/01/22 01:23:45;;;;;;;0.30;0.30;;;4.40;85.40;;;;;;10462491;28;20221;-82
2024/01/22 01:28:47;;;;;;;0.30;0.30;;;4.20;86.00;;;;;;10475881;28;20186;-80
2024/01/22 01:33:50;;;;;;;0.30;0.30;;;4.20;86.50;;;;;;10468148;28;20209;-79
2024/01/22 01:38:53;;;;;;;0.30;0.30;;;4.10;86.80;;;;;;10459846;28;20209;-80
2024/01/22 01:43:55;;;;;;;0.30;0.30;;;3.90;87.00;;;;;;10443728;28;20251;-79
2024/01/22 01:48:59;;;;;;;0.30;0.30;;;3.90;87.90;;;;;;10455753;28;20529;-81
2024/01/22 01:54:05;;;;;;;0.30;0.30;;;3.80;88.70;;;;;;10447012;28;20532;-77
2024/01/22 01:59:07;;;;;;;0.30;0.30;;;3.70;90.00;;;;;;10457781;28;20220;-79
2024/01/22 02:04:10;;;;;;;0.30;0.30;;;3.60;90.00;;;;;;10455647;28;20306;-79
2024/01/22 02:09:13;;;;;;;0.30;0.30;;;3.50;90.20;;;;;;10455903;28;20193;-81
2024/01/22 02:14:16;;;;;;;0.30;0.30;;;3.40;90.70;;;;;;10459472;28;20598;-81
2024/01/22 02:19:18;;;;;;;0.30;0.30;;;3.40;90.70;;;;;;10459807;28;20279;-82
2024/01/22 02:24:22;;;;;;;0.30;0.30;;;3.30;90.90;;;;;;10462505;28;20217;-80
2024/01/22 02:29:24;;;;;;;0.30;0.30;;;3.30;90.80;;;;;;10446155;28;20658;-80
2024/01/22 02:34:27;;;;;;;0.20;0.20;;;3.40;91.20;;;;;;10454672;28;20221;-78
2024/01/22 02:39:30;;;;;;;0.30;0.30;;;3.40;90.90;;;;;;10453958;28;20228;-79
2024/01/22 02:44:34;;;;;;;0.30;0.30;;;3.50;91.10;;;;;;10454844;28;20229;-79
2024/01/22 02:49:37;;;;;;;0.30;0.30;;;3.50;91.30;;;;;;10435522;28;20662;-80
2024/01/22 02:54:40;;;;;;;0.30;0.30;;;3.50;91.50;;;;;;10454111;28;20212;-79
2024/01/22 02:59:43;;;;;;;0.30;0.30;;;3.50;91.70;;;;;;10452784;28;20217;-80
2024/01/22 03:04:45;;;;;;;0.40;0.40;;;3.40;91.90;;;;;;10451163;28;20217;-81
2024/01/22 03:09:49;;;;;;;0.30;0.30;;;3.40;92.00;;;;;;10462603;28;20247;-80
2024/01/22 03:14:51;;;;;;;0.30;0.30;;;3.40;92.10;;;;;;10485133;28;20217;-79
2024/01/22 03:19:53;;;;;;;0.30;0.30;;;3.40;92.20;;;;;;10491628;28;20625;-80
2024/01/22 03:24:57;;;;;;;0.30;0.30;;;3.30;92.30;;;;;;10490898;28;20232;-78
2024/01/22 03:30:00;;;;;;;0.30;0.30;;;3.40;92.60;;;;;;10490685;28;20952;-80
2024/01/22 03:35:03;;;;;;;0.30;0.30;;;3.40;92.90;;;;;;10499091;28;20228;-78
2024/01/22 03:40:09;;;;;;;0.40;0.40;;;3.40;93.20;;;;;;10456041;28;20294;-80
2024/01/22 03:45:15;;;;;;;0.33;0.33;;;3.40;93.50;;;;;;10482001;28;20722;-81
2024/01/22 03:50:17;;;;;;;0.40;0.40;;;3.50;93.70;;;;;;10459837;28;20189;-79
2024/01/22 03:55:21;;;;;;;0.40;0.40;;;3.50;93.80;;;;;;10481345;28;20216;-80
2024/01/22 04:00:23;;;;;;;0.40;0.40;;;3.60;94.00;;;;;;10453511;28;20228;-80
2024/01/22 04:05:25;;;;;;;0.53;0.53;;;3.60;94.10;;;;;;10480464;28;20231;-80
2024/01/22 04:10:29;;;;;;;0.60;0.60;;;3.70;94.10;;;;;;10487292;28;20243;-79
2024/01/22 04:15:32;;;;;;;0.40;0.40;;;3.80;94.30;;;;;;10485623;28;20278;-78
2024/01/22 04:20:34;;;;;;;0.60;0.60;;;3.90;94.20;;;;;;10489136;28;20701;-79
2024/01/22 04:25:37;;;;;;;0.60;0.60;;;3.90;94.40;;;;;;10483021;28;20231;-77
2024/01/22 04:30:40;;;;;;;0.70;0.70;;;3.90;94.40;;;;;;10467081;28;20193;-80
2024/01/22 04:35:42;;;;;;;0.60;0.60;;;3.90;94.50;;;;;;10468795;28;20212;-80
2024/01/22 04:40:46;;;;;;;0.60;0.60;;;3.90;94.80;;;;;;10486218;28;20269;-78
2024/01/22 04:45:48;;;;;;;0.60;0.60;;;3.90;94.90;;;;;;10452988;28;20228;-80
2024/01/22 04:50:51;;;;;;;0.70;0.70;;;3.90;95.00;;;;;;10477237;28;20212;-79
2024/01/22 04:55:54;;;;;;;0.50;0.50;;;3.90;95.10;;;;;;10479493;28;20209;-81
2024/01/22 05:00:59;;;;;;;0.70;0.70;;;4.00;95.10;;;;;;10479246;28;20327;-79
2024/01/22 05:06:02;;;;;;;0.57;0.57;;;4.00;95.10;;;;;;10477858;28;20217;-78
2024/01/22 05:11:07;;;;;;;0.73;0.73;;;4.10;95.10;;;;;;10475529;28;20193;-79
2024/01/22 05:16:09;;;;;;;0.70;0.70;;;4.20;94.90;;;;;;10478748;28;20735;-80
2024/01/22 05:21:11;;;;;;;0.63;0.63;;;4.30;94.60;;;;;;10432726;28;20283;-79
2024/01/22 05:26:15;;;;;;;0.57;0.57;;;4.30;94.20;;;;;;10501127;22;20239;-79
2024/01/22 05:31:17;;;;;;;0.50;0.50;;;4.40;94.30;;;;;;10483878;28;20223;-81
2024/01/22 05:36:20;;;;;;;0.53;0.53;;;4.40;94.50;;;;;;10434678;28;20209;-78
2024/01/22 05:41:23;;;;;;;0.30;0.30;;;4.40;94.80;;;;;;10446352;28;20217;-79
2024/01/22 05:46:26;;;;;;;0.50;0.50;;;4.50;94.60;;;;;;10427992;28;20785;-81
2024/01/22 05:51:28;;;;;;;0.40;0.40;;;4.60;94.40;;;;;;10447573;28;20220;-79
2024/01/22 05:56:32;;;;;;;0.50;0.50;;;4.70;94.30;;;;;;10419781;28;20452;-80
2024/01/22 06:01:35;;;;;;;0.57;0.57;;;4.80;94.50;;;;;;10441799;28;20229;-79
2024/01/22 06:06:38;;;;;;;0.40;0.40;;;4.90;94.40;;;;;;10449874;28;20220;-81
2024/01/22 06:11:42;;;;;;;0.40;0.40;;;5.20;94.00;;;;;;10449556;28;20196;-80
2024/01/22 06:16:46;;;;;;;0.50;0.50;;;5.40;93.70;;;;;;10419414;28;20213;-77
2024/01/22 06:21:48;;;;;;;0.50;0.50;;;5.50;93.40;;;;;;10421614;28;20213;-81
2024/01/22 06:26:52;;;;;;;0.40;0.40;;;5.70;92.90;;;;;;10437912;28;20750;-79
2024/01/22 06:31:55;;;;;;;0.60;0.60;;;6.00;92.20;;;;;;10438773;28;20248;-78
2024/01/22 06:36:57;;;;;;;0.50;0.50;;;6.30;91.80;;;;;;10429751;28;20230;-78
2024/01/22 06:42:01;;;;;;;0.40;0.40;;;6.40;91.60;;;;;;10436119;28;20213;-80
2024/01/22 06:47:03;;;;;;;0.40;0.40;;;6.60;91.10;;;;;;10433034;28;20458;-77
2024/01/22 06:52:06;;;;;;;0.43;0.43;;;6.80;90.70;;;;;;10443222;28;20254;-79
2024/01/22 06:57:10;;;;;;;0.40;0.40;;;7.00;90.40;;;;;;10435166;28;20636;-80
2024/01/22 07:02:12;;;;;;;0.40;0.40;;;7.10;90.10;;;;;;10434038;28;20228;-77
2024/01/22 07:07:14;;;;;;;0.40;0.40;;;7.20;89.60;;;;;;10435236;28;20220;-81
2024/01/22 07:12:19;;;;;;;0.53;0.53;;;7.30;89.40;;;;;;10417872;28;20204;-77
2024/01/22 07:17:22;;;;;;;0.20;0.20;;;7.30;89.00;;;;;;10451377;28;20221;-79
2024/01/22 07:22:24;;;;;;;0.30;0.30;;;7.40;88.20;;;;;;10455189;28;20217;-78
2024/01/22 07:27:28;;;;;;;0.40;0.40;;;7.50;87.70;;;;;;10432545;28;20233;-80
2024/01/22 07:32:32;;;;;;;0.20;0.20;;;7.50;87.90;;;;;;10412039;28;20662;-78
2024/01/22 07:37:35;;;;;;;0.40;0.40;;;7.60;87.90;;;;;;10391343;28;20221;-80
2024/01/22 07:42:41;;;;;;;0.40;0.40;;;7.60;88.10;;;;;;10452946;28;20220;-80
2024/01/22 07:47:43;;;;;;;0.50;0.50;;;7.60;87.90;;;;;;10433535;28;20217;-79
2024/01/22 07:52:45;;;;;;;0.40;0.40;;;7.70;88.00;;;;;;10447647;28;20182;-78
2024/01/22 07:57:49;;;;;;;0.40;0.40;;;7.70;88.10;;;;;;10437498;28;20197;-78
2024/01/22 08:02:51;;;;;;;0.40;0.40;;;7.80;88.40;;;;;;10432957;28;20220;-78
2024/01/22 08:07:54;;;;;;;0.30;0.30;;;7.80;89.00;;;;;;10446148;28;20209;-79
2024/01/22 08:12:58;;;;;;;0.37;0.37;;;7.80;90.00;;;;;;10417143;28;20197;-78
2024/01/22 08:18:00;;;;;;;0.30;0.30;;;7.90;90.30;;;;;;10434392;28;20282;-78
2024/01/22 08:23:02;;;;;;;0.30;0.30;;;8.00;90.80;;;;;;10433531;28;20214;-79
2024/01/22 08:28:07;;;;;;;0.20;0.20;;;8.10;91.30;;;;;;10431254;28;20197;-78
2024/01/22 08:33:09;;;;;;;0.20;0.20;;;8.30;91.50;;;;;;10454360;28;20209;-80
2024/01/22 08:38:11;;;;;;;0.23;0.23;;;8.50;91.80;;;;;;10429396;28;20201;-79
2024/01/22 08:43:15;;;;;;;0.27;0.27;;;8.60;91.90;;;;;;10429991;28;20279;-78
2024/01/22 08:48:18;;;;;;;0.10;0.10;;;8.60;92.10;;;;;;10427162;28;20709;-80
2024/01/22 08:53:20;;;;;;;0.20;0.20;;;8.60;92.50;;;;;;10421777;28;20205;-78
2024/01/22 08:58:24;;;;;;;0.30;0.30;;;8.70;93.10;;;;;;10436536;28;20675;-80
2024/01/22 09:03:26;;;;;;;0.30;0.30;;;8.80;94.00;;;;;;10419016;28;20609;-78
2024/01/22 09:08:28;;;;;;;0.30;0.30;;;8.90;94.80;;;;;;10432783;28;20205;-78
2024/01/22 09:13:32;;;;;;;0.20;0.20;;;9.10;95.50;;;;;;10437124;28;20225;-78
2024/01/22 09:18:35;;;;;;;0.30;0.30;;;9.20;95.20;;;;;;10435109;28;20194;-80
2024/01/22 09:23:38;;;;;;;0.30;0.30;;;9.20;95.20;;;;;;10434774;28;20226;-80
2024/01/22 09:28:41;;;;;;;0.30;0.30;;;9.20;96.40;;;;;;10439517;28;20190;-80
2024/01/22 09:33:44;;;;;;;0.20;0.20;;;9.40;97.70;;;;;;10421154;28;20217;-79
2024/01/22 09:38:46;;;;;;;0.10;0.10;;;9.60;98.20;;;;;;10464014;28;20190;-78
2024/01/22 09:43:50;;;;;;;0.40;0.40;;;9.80;98.50;;;;;;10436862;28;20697;-79
2024/01/22 09:48:53;;;;;;;0.20;0.20;;;10.00;98.30;;;;;;10431437;28;20181;-77
2024/01/22 09:54:03;;;;;;;0.30;0.30;;;10.20;98.80;;;;;;10435245;28;20687;-79
2024/01/22 09:59:16;;;;;;;0.40;0.40;;;10.40;98.30;;;;;;10411860;28;20218;-79
2024/01/22 10:04:20;;;;;;;0.30;0.30;;;10.50;98.80;;;;;;10412567;28;20217;-78
2024/01/22 10:09:23;;;;;;;0.40;0.40;;;10.70;99.00;;;;;;10417099;28;20186;-77
2024/01/22 10:14:34;;;;;;;0.30;0.30;;;10.80;99.30;;;;;;10433403;28;20217;-79
2024/01/22 10:19:37;;;;;;;0.30;0.30;;;11.00;99.30;;;;;;10419423;28;20221;-79
2024/01/22 10:24:40;;;;;;;0.40;0.40;;;11.10;99.50;;;;;;10422835;28;20670;-77
2024/01/22 10:29:46;;;;;;;0.40;0.40;;;11.30;99.60;;;;;;10403129;28;20205;-78
2024/01/22 10:34:51;;;;;;;0.20;0.20;;;11.30;99.00;;;;;;10424767;28;20221;-79
2024/01/22 10:40:01;;;;;;;0.40;0.40;;;11.40;98.90;;;;;;10429821;28;20210;-78
2024/01/22 10:45:09;;;;;;;0.30;0.30;;;11.40;98.70;;;;;;10425485;28;20639;-79
2024/01/22 10:50:11;;;;;;;0.40;0.40;;;11.40;99.00;;;;;;10395884;28;20186;-79
2024/01/22 10:55:13;;;;;;;0.30;0.30;;;11.50;99.50;;;;;;10422527;28;20272;-79
2024/01/22 11:00:18;;;;;;;0.30;0.30;;;11.60;99.30;;;;;;10422271;28;20213;-78
2024/01/22 11:05:23;;;;;;;0.40;0.40;;;11.60;99.40;;;;;;10418733;28;20225;-80
2024/01/22 11:10:26;;;;;;;0.30;0.30;;;11.60;99.40;;;;;;10421966;28;20255;-78
2024/01/22 11:15:30;;;;;;;0.40;0.40;;;11.60;99.40;;;;;;10428191;28;20229;-80
2024/01/22 11:20:32;;;;;;;0.40;0.40;;;11.70;99.50;;;;;;10408836;28;20669;-79
2024/01/22 11:25:35;;;;;;;0.50;0.50;;;11.90;99.70;;;;;;10461684;22;20232;-81
2024/01/22 11:30:40;;;;;;;0.40;0.40;;;12.00;99.40;;;;;;10443935;28;20196;-80
2024/01/22 11:35:44;;;;;;;0.37;0.37;;;12.00;99.30;;;;;;10463614;28;20221;-82
2024/01/22 11:40:48;;;;;;;0.40;0.40;;;12.00;99.70;;;;;;10483243;28;20221;-81
2024/01/22 11:45:56;;;;;;;0.40;0.40;;;11.90;99.90;;;;;;10479539;28;20213;-80
2024/01/22 11:51:00;;;;;;;0.40;0.40;;;12.00;99.90;;;;;;10468525;28;20658;-81
2024/01/22 11:56:04;;;;;;;0.30;0.30;;;11.90;99.90;;;;;;10442373;28;20228;-80
2024/01/22 12:01:10;;;;;;;0.40;0.40;;;11.80;99.90;;;;;;10458841;28;20591;-82
2024/01/22 12:06:12;;;;;;;0.30;0.30;;;11.80;99.90;;;;;;10453323;28;20220;-82
2024/01/22 12:11:16;;;;;;;0.33;0.33;;;11.80;99.90;;;;;;10448889;28;20683;-81
2024/01/22 12:16:20;;;;;;;0.40;0.40;;;11.80;99.90;;;;;;10457855;28;20255;-80
2024/01/22 12:21:23;;;;;;;0.40;0.40;;;11.90;99.90;;;;;;10448026;28;20697;-80
2024/01/22 12:26:25;;;;;;;0.40;0.40;;;11.90;99.90;;;;;;10452247;28;20602;-82
2024/01/22 12:31:29;;;;;;;0.30;0.30;;;12.00;99.90;;;;;;10461777;28;20227;-81
2024/01/22 12:36:31;;;;;;;0.40;0.40;;;12.10;99.90;;;;;;10449547;28;20221;-82
2024/01/22 12:41:35;;;;;;;0.30;0.30;;;12.20;99.90;;;;;;10441444;28;20225;-82
2024/01/22 12:46:38;;;;;;;0.40;0.40;;;12.30;99.90;;;;;;10458636;28;20739;-82
2024/01/22 12:51:41;;;;;;;0.40;0.40;;;12.30;99.90;;;;;;10452503;28;20618;-82
2024/01/22 12:56:43;;;;;;;0.40;0.40;;;12.20;99.90;;;;;;10460546;28;20228;-81
2024/01/22 13:01:47;;;;;;;0.40;0.40;;;12.10;99.90;;;;;;10459004;28;20225;-79
2024/01/22 13:06:49;;;;;;;0.30;0.30;;;12.10;99.90;;;;;;10441703;28;20223;-81
2024/01/22 13:11:51;;;;;;;0.50;0.50;;;12.10;99.90;;;;;;10440754;28;20845;-80
2024/01/22 13:16:58;;;;;;;0.50;0.50;;;12.00;99.90;;;;;;10462154;28;20616;-83
2024/01/22 13:22:01;;;;;;;0.40;0.40;;;12.00;99.90;;;;;;10471079;28;20220;-82
2024/01/22 13:27:03;;;;;;;0.30;0.30;;;12.10;99.90;;;;;;10494713;28;20543;-79
2024/01/22 13:32:07;;;;;;;0.40;0.40;;;12.10;99.90;;;;;;10475736;28;20540;-81
2024/01/22 13:37:09;;;;;;;0.30;0.30;;;12.10;99.90;;;;;;10493511;28;20212;-82
2024/01/22 13:42:12;;;;;;;0.40;0.40;;;12.10;99.90;;;;;;10506515;28;20224;-81
2024/01/22 13:47:16;;;;;;;0.27;0.27;;;12.00;99.90;;;;;;10470995;28;20216;-82
2024/01/22 13:52:18;;;;;;;0.50;0.50;;;12.00;99.90;;;;;;10487050;28;20329;-81
2024/01/22 13:57:20;;;;;;;0.40;0.40;;;12.00;99.90;;;;;;10491515;28;20705;-82
2024/01/22 14:02:24;;;;;;;0.30;0.30;;;12.00;99.90;;;;;;10491667;28;20246;-80
2024/01/22 14:07:27;;;;;;;0.23;0.23;;;11.90;99.90;;;;;;10471847;28;20236;-82
2024/01/22 14:12:29;;;;;;;0.40;0.40;;;11.90;99.90;;;;;;10492044;28;20203;-81
2024/01/22 14:17:33;;;;;;;0.33;0.33;;;11.80;99.90;;;;;;10481573;28;20227;-81
2024/01/22 14:22:36;;;;;;;0.43;0.43;;;11.80;99.90;;;;;;10442465;28;20213;-82
2024/01/22 14:27:41;;;;;;;0.40;0.40;;;11.70;99.90;;;;;;10462578;28;20697;-81
2024/01/22 14:32:44;;;;;;;0.40;0.40;;;11.70;99.90;;;;;;10470007;28;20189;-82
2024/01/22 14:37:48;;;;;;;0.50;0.50;;;11.70;99.90;;;;;;10483794;28;20872;-81
2024/01/22 14:42:50;;;;;;;0.60;0.60;;;11.60;99.90;;;;;;10458762;28;20218;-80
2024/01/22 14:47:54;;;;;;;0.60;0.60;;;11.60;99.90;;;;;;10440838;28;20230;-82
2024/01/22 14:52:56;;;;;;;0.40;0.40;;;11.50;99.90;;;;;;10452380;28;20200;-83
2024/01/22 14:57:59;;;;;;;0.63;0.63;;;11.40;99.90;;;;;;10452535;28;20577;-83
2024/01/22 15:03:04;;;;;;;0.30;0.30;;;11.50;99.90;;;;;;10453256;28;20263;-84
2024/01/22 15:08:08;;;;;;;0.50;0.50;;;11.50;99.90;;;;;;10459852;28;20216;-83
2024/01/22 15:13:10;;;;;;;0.60;0.60;;;11.40;99.90;;;;;;10459193;28;20571;-83
2024/01/22 15:18:14;;;;;;;0.20;0.20;;;11.30;99.90;;;;;;10461527;28;20201;-83
2024/01/22 15:23:17;;;;;;;0.30;0.30;;;11.20;99.90;;;;;;10462241;28;20476;-81
2024/01/22 15:28:19;;;;;;;0.80;0.80;;;11.20;99.90;;;;;;10456852;28;20690;-83
2024/01/22 15:33:24;;;;;;;1.10;1.10;;;11.10;99.90;;;;;;10457325;28;20209;-82
2024/01/22 15:38:26;;;;;;;1.00;1.00;;;10.90;99.90;;;;;;10458063;28;20290;-82
2024/01/22 15:43:28;;;;;;;1.00;1.00;;;10.70;99.90;;;;;;10467655;28;20217;-83
2024/01/22 15:48:33;;;;;;;1.17;1.17;;;10.60;99.90;;;;;;10444245;28;20204;-81
2024/01/22 15:53:36;;;;;;;0.90;0.90;;;10.50;99.90;;;;;;10456639;28;20213;-80
2024/01/22 15:58:38;;;;;;;1.30;1.30;;;10.50;99.90;;;;;;10458596;28;20194;-81
2024/01/22 16:03:42;;;;;;;1.27;1.27;;;10.40;99.90;;;;;;10463450;28;20221;-81
2024/01/22 16:08:44;;;;;;;1.13;1.13;;;10.30;99.90;;;;;;10472429;28;20208;-82
2024/01/22 16:13:47;;;;;;;1.00;1.00;;;10.20;99.90;;;;;;10461144;28;20224;-82
2024/01/22 16:18:51;;;;;;;1.20;1.20;;;10.30;99.90;;;;;;10469840;28;20544;-84
2024/01/22 16:23:54;;;;;;;1.10;1.10;;;10.20;99.90;;;;;;10460003;28;20706;-82
2024/01/22 16:28:56;;;;;;;1.30;1.30;;;10.20;99.90;;;;;;10455929;28;20226;-81
2024/01/22 16:34:01;;;;;;;1.10;1.10;;;10.20;99.90;;;;;;10437242;28;20220;-82
2024/01/22 16:39:04;;;;;;;1.60;1.60;;;10.10;99.90;;;;;;10457923;28;20623;-80
2024/01/22 16:44:07;;;;;;;1.57;1.57;;;10.00;99.90;;;;;;10458080;28;20233;-81
2024/01/22 16:49:10;;;;;;;1.60;1.60;;;10.00;99.90;;;;;;10467792;28;20251;-80
2024/01/22 16:54:13;;;;;;;2.07;2.07;;;9.90;99.90;;;;;;10454310;28;20217;-79
2024/01/22 16:59:16;;;;;;;2.20;2.20;;;9.80;99.90;;;;;;10454298;28;20205;-80
2024/01/22 17:04:22;;;;;;;1.50;1.50;;;9.80;99.90;;;;;;10470861;28;20580;-80
2024/01/22 17:09:25;;;;;;;1.20;1.20;;;9.70;99.90;;;;;;10453533;28;20243;-81
2024/01/22 17:14:27;;;;;;;2.10;2.10;;;9.60;99.90;;;;;;10457863;28;20263;-80
2024/01/22 17:19:31;;;;;;;2.87;2.87;;;9.50;99.90;;;;;;10456495;28;20664;-79
2024/01/22 17:24:33;;;;;;;5.13;5.13;;;9.50;99.90;;;;;;10455439;28;20217;-81
2024/01/22 17:29:35;;;;;;;2.60;2.60;;;9.50;99.90;;;;;;10456558;28;20197;-79
2024/01/22 17:34:40;;;;;;;4.33;4.33;;;9.40;99.90;;;;;;10439298;28;20226;-78
2024/01/22 17:39:43;;;;;;;4.70;4.70;;;9.20;99.90;;;;;;10436868;28;20221;-79
2024/01/22 17:44:45;;;;;;;4.80;4.80;;;9.00;99.90;;;;;;10446122;28;20594;-81
2024/01/22 17:49:49;;;;;;;3.60;3.60;;;8.90;99.90;;;;;;10448811;28;20210;-79
2024/01/22 17:54:51;;;;;;;4.57;4.57;;;8.70;99.90;;;;;;10429248;28;20213;-80
2024/01/22 17:59:54;;;;;;;5.20;5.20;;;8.60;99.90;;;;;;10448700;28;20200;-81
2024/01/22 18:04:58;;;;;;;4.77;4.77;;;8.50;99.90;;;;;;10434093;28;20224;-81
2024/01/22 18:10:01;;;;;;;5.57;5.57;;;8.50;99.90;;;;;;10454248;28;20201;-80
2024/01/22 18:15:04;;;;;;;5.53;5.53;;;8.50;99.90;;;;;;10456619;28;20217;-80
2024/01/22 18:20:09;;;;;;;5.60;5.60;;;8.40;99.90;;;;;;10454772;28;20199;-79
2024/01/22 18:25:12;;;;;;;4.97;4.97;;;8.40;99.90;;;;;;10451834;28;20237;-78
2024/01/22 18:30:14;;;;;;;4.07;4.07;;;8.30;99.90;;;;;;10456690;28;20627;-80
2024/01/22 18:35:18;;;;;;;5.13;5.13;;;8.30;99.90;;;;;;10455349;28;20279;-80
2024/01/22 18:40:23;;;;;;;5.20;5.20;;;8.30;99.90;;;;;;10459873;28;20604;-80
2024/01/22 18:45:25;;;;;;;5.30;5.30;;;8.20;99.90;;;;;;10448749;28;20233;-79
2024/01/22 18:50:29;;;;;;;5.27;5.27;;;8.10;99.90;;;;;;10443560;28;20205;-79
2024/01/22 18:55:31;;;;;;;5.30;5.30;;;8.10;99.90;;;;;;10451108;28;20213;-78
2024/01/22 19:00:33;;;;;;;5.27;5.27;;;8.10;99.90;;;;;;10439106;28;20251;-79
2024/01/22 19:05:37;;;;;;;5.27;5.27;;;8.00;99.90;;;;;;10450622;28;20347;-79
2024/01/22 19:10:40;;;;;;;4.57;4.57;;;7.90;99.90;;;;;;10449844;28;20198;-80
2024/01/22 19:15:43;;;;;;;4.53;4.53;;;7.90;99.90;;;;;;10459107;28;20626;-82
2024/01/22 19:20:47;;;;;;;4.50;4.50;;;7.90;99.90;;;;;;10441149;28;20201;-82
2024/01/22 19:25:50;;;;;;;4.30;4.30;;;7.90;99.90;;;;;;10459603;28;20221;-82
2024/01/22 19:30:52;;;;;;;4.30;4.30;;;7.90;99.90;;;;;;10454024;28;20200;-83
2024/01/22 19:35:56;;;;;;;4.10;4.10;;;7.90;99.90;;;;;;10461696;28;20339;-80
2024/01/22 19:40:58;;;;;;;4.90;4.90;;;7.90;99.90;;;;;;10464088;28;20251;-82
2024/01/22 19:46:02;;;;;;;4.10;4.10;;;7.80;99.90;;;;;;10444128;28;20636;-83
2024/01/22 19:51:07;;;;;;;4.50;4.50;;;7.80;99.90;;;;;;10466677;28;20197;-81
2024/01/22 19:56:09;;;;;;;4.40;4.40;;;7.80;99.90;;;;;;10460143;28;20228;-82
2024/01/22 20:01:11;;;;;;;4.40;4.40;;;7.80;99.90;;;;;;10458895;28;20232;-78
2024/01/22 20:06:15;;;;;;;4.30;4.30;;;7.80;99.90;;;;;;10438950;28;20225;-79
2024/01/22 20:11:17;;;;;;;4.00;4.00;;;7.80;99.90;;;;;;10449914;28;20671;-79
2024/01/22 20:16:20;;;;;;;4.20;4.20;;;7.80;99.90;;;;;;10464069;28;20291;-81
2024/01/22 20:21:23;;;;;;;3.60;3.60;;;7.80;99.90;;;;;;10456964;28;20205;-80
2024/01/22 20:26:28;;;;;;;3.47;3.47;;;7.80;99.90;;;;;;10447784;28;20632;-79
2024/01/22 20:31:30;;;;;;;3.87;3.87;;;7.70;99.90;;;;;;10466882;28;20233;-79
2024/01/22 20:36:34;;;;;;;2.83;2.83;;;7.70;99.90;;;;;;10451021;28;20217;-79
2024/01/22 20:41:40;;;;;;;3.37;3.37;;;7.70;99.90;;;;;;10457161;28;20197;-80
2024/01/22 20:46:42;;;;;;;3.67;3.67;;;7.60;99.90;;;;;;10433187;28;20217;-81
2024/01/22 20:51:46;;;;;;;3.37;3.37;;;7.60;99.90;;;;;;10458700;28;20212;-82
2024/01/22 20:56:48;;;;;;;2.50;2.50;;;7.60;99.90;;;;;;10457509;28;20253;-81
2024/01/22 21:01:51;;;;;;;2.57;2.57;;;7.60;99.90;;;;;;10452557;28;20205;-80
2024/01/22 21:06:55;;;;;;;2.47;2.47;;;7.60;99.90;;;;;;10475159;28;20221;-81
2024/01/22 21:11:57;;;;;;;1.60;1.60;;;7.60;99.90;;;;;;10461120;28;20202;-79
2024/01/22 21:17:00;;;;;;;2.10;2.10;;;7.70;99.90;;;;;;10454090;28;20232;-78
2024/01/22 21:22:04;;;;;;;1.90;1.90;;;7.70;99.90;;;;;;10464401;28;20682;-80
2024/01/22 21:27:06;;;;;;;1.83;1.83;;;7.70;99.90;;;;;;10459287;28;20221;-81
2024/01/22 21:32:08;;;;;;;1.70;1.70;;;7.70;99.90;;;;;;10463156;28;20615;-80
2024/01/22 21:37:12;;;;;;;1.97;1.97;;;7.70;99.90;;;;;;10460634;28;20294;-79
2024/01/22 21:42:15;;;;;;;1.60;1.60;;;7.70;99.90;;;;;;10463698;28;20201;-81
2024/01/22 21:47:17;;;;;;;1.70;1.70;;;7.70;99.90;;;;;;10470175;28;20291;-78
2024/01/22 21:52:21;;;;;;;1.33;1.33;;;7.70;99.90;;;;;;10473244;28;20205;-78
2024/01/22 21:57:23;;;;;;;1.00;1.00;;;7.70;99.90;;;;;;10473969;28;20248;-82
2024/01/22 22:02:26;;;;;;;1.10;1.10;;;7.70;99.90;;;;;;10463569;28;20224;-81
2024/01/22 22:07:29;;;;;;;1.40;1.40;;;7.80;99.90;;;;;;10461459;28;20216;-80
2024/01/22 22:12:32;;;;;;;0.83;0.83;;;7.90;99.90;;;;;;10475946;28;20258;-81
2024/01/22 22:17:34;;;;;;;0.97;0.97;;;8.00;99.90;;;;;;10490483;28;20221;-80
2024/01/22 22:22:38;;;;;;;1.03;1.03;;;8.00;99.90;;;;;;10492610;28;20217;-79
2024/01/22 22:27:41;;;;;;;0.80;0.80;;;7.90;99.90;;;;;;10481518;28;20229;-81
2024/01/22 22:32:43;;;;;;;1.00;1.00;;;8.00;99.90;;;;;;10474931;28;20189;-81
2024/01/22 22:37:47;;;;;;;0.80;0.80;;;8.00;99.90;;;;;;10461417;28;20229;-80
2024/01/22 22:42:50;;;;;;;0.80;0.80;;;8.00;99.90;;;;;;10455968;28;21025;-81
2024/01/22 22:47:52;;;;;;;1.03;1.03;;;8.00;99.90;;;;;;10471420;28;20243;-82
2024/01/22 22:52:56;;;;;;;0.97;0.97;;;8.00;99.90;;;;;;10452841;28;20201;-79
2024/01/22 22:57:59;;;;;;;0.80;0.80;;;8.10;99.90;;;;;;10464688;28;20217;-81
2024/01/22 23:03:01;;;;;;;0.70;0.70;;;8.10;99.90;;;;;;10466022;28;20304;-83
2024/01/22 23:08:05;;;;;;;1.03;1.03;;;8.10;99.90;;;;;;10469832;28;20269;-82
2024/01/22 23:13:08;;;;;;;1.00;1.00;;;8.10;99.90;;;;;;10483733;28;20667;-81
2024/01/22 23:18:11;;;;;;;1.17;1.17;;;8.00;99.90;;;;;;10443790;28;20193;-80
2024/01/22 23:23:15;;;;;;;1.30;1.30;;;8.10;99.90;;;;;;10462946;28;20618;-79
2024/01/22 23:28:17;;;;;;;1.20;1.20;;;8.00;99.90;;;;;;10509240;22;20289;-80
2024/01/22 23:33:20;;;;;;;0.97;0.97;;;8.00;99.90;;;;;;10485899;28;20192;-81
2024/01/22 23:38:24;;;;;;;1.00;1.00;;;7.90;99.90;;;;;;10455002;28;20228;-79
2024/01/22 23:43:26;;;;;;;1.00;1.00;;;7.90;99.90;;;;;;10475138;28;20274;-80
2024/01/22 23:48:28;;;;;;;1.13;1.13;;;7.90;99.90;;;;;;10459906;28;20217;-81
2024/01/22 23:53:32;;;;;;;1.10;1.10;;;8.00;99.90;;;;;;10477345;28;21100;-80
2024/01/22 23:58:35;;;;;;;0.90;0.90;;;8.00;99.90;;;;;;10469811;28;20220;-81
